Bettsville, Ohio
Current Conditions -  °F | °C
As of 2:53 AM on Friday 19 Dec 2014 (Local Time) from KTDZ Reporting Station
Overcast Overcast  
Wind Chill: 22°   Ceiling: 1200
Heat Index: 30°   Visibility: 8mi
Dew Point: 25°   Wind: 8mph
Humidity: 82%   Direction: 290°WNW
Pressure: 30.21"   Gusts: NA
Location:  41.25°N, 83.24°W
Report Text: KTDZ 190753Z AUTO 29007KT 8SM OVC012 M01/M04 A3021 RMK AO2 SLP238 T10111039 TSNO
Loading
Personal Weather Stations






























Interactive Weather Map New forecast layout! Learn more

10-Day Weather Forecast

Advertisements
Track Severe Weather on mobile